Time;durP1;ratioP1;P1;durP2;ratioP2;P2;SDS_P1;SDS_P2;PMS_P1;PMS_P2;Temp;Humidity;BMP_temperature;BMP_pressure;BME280_temperature;BME280_humidity;BME280_pressure;Samples;Min_cycle;Max_cycle;Signal;HPM_P1;HPM_P2
2021/10/09 00:02:08;;;;;;;28.90;19.02;;;;;;;;;;4934145;29;20518;-68
2021/10/09 00:04:35;;;;;;;27.80;18.00;;;;;;;;;;4934709;29;20107;-67
2021/10/09 00:07:02;;;;;;;32.55;19.17;;;;;;;;;;4934843;29;20051;-67
2021/10/09 00:09:28;;;;;;;32.75;20.35;;;;;;;;;;4934382;29;20052;-67
2021/10/09 00:11:55;;;;;;;37.30;21.55;;;;;;;;;;4917628;29;20107;-68
2021/10/09 00:14:22;;;;;;;39.22;24.50;;;;;;;;;;4933249;29;20044;-67
2021/10/09 00:16:49;;;;;;;37.25;23.98;;;;;;;;;;4934611;29;20471;-68
2021/10/09 00:19:16;;;;;;;35.95;22.52;;;;;;;;;;4934283;29;20528;-67
2021/10/09 00:21:46;;;;;;;35.58;22.58;;;;;;;;;;4934233;29;20574;-67
2021/10/09 00:24:17;;;;;;;31.15;21.80;;;;;;;;;;4934498;29;20059;-68
2021/10/09 00:26:44;;;;;;;33.00;20.02;;;;;;;;;;4934520;29;20056;-66
2021/10/09 00:29:11;;;;;;;30.10;19.88;;;;;;;;;;4934442;29;20077;-66
2021/10/09 00:31:38;;;;;;;34.05;19.50;;;;;;;;;;4934190;29;20059;-67
2021/10/09 00:34:05;;;;;;;32.42;19.48;;;;;;;;;;4934468;29;20423;-67
2021/10/09 00:36:31;;;;;;;27.02;17.98;;;;;;;;;;4934294;29;20087;-68
2021/10/09 00:38:58;;;;;;;30.60;19.38;;;;;;;;;;4934285;29;20107;-68
2021/10/09 00:41:25;;;;;;;32.90;19.10;;;;;;;;;;4934071;29;20111;-68
2021/10/09 00:43:51;;;;;;;26.20;17.42;;;;;;;;;;4934290;29;20111;-68
2021/10/09 00:46:18;;;;;;;31.55;19.42;;;;;;;;;;4934279;29;20555;-68
2021/10/09 00:48:45;;;;;;;27.40;17.92;;;;;;;;;;4917542;29;20055;-67
2021/10/09 00:51:12;;;;;;;27.70;17.60;;;;;;;;;;4934302;29;20287;-67
2021/10/09 00:53:40;;;;;;;29.35;17.42;;;;;;;;;;4948723;29;20055;-67
2021/10/09 00:56:07;;;;;;;26.60;19.00;;;;;;;;;;4934193;29;20048;-68
2021/10/09 00:58:34;;;;;;;24.17;17.05;;;;;;;;;;4933868;29;20062;-68
2021/10/09 01:01:01;;;;;;;28.52;18.20;;;;;;;;;;4901618;29;20056;-67
2021/10/09 01:03:28;;;;;;;24.27;17.35;;;;;;;;;;4933908;29;20134;-67
2021/10/09 01:05:54;;;;;;;26.75;17.88;;;;;;;;;;4917371;29;20055;-68
2021/10/09 01:08:21;;;;;;;29.95;16.83;;;;;;;;;;4934308;29;20059;-67
2021/10/09 01:10:47;;;;;;;28.05;18.30;;;;;;;;;;4933924;29;20574;-66
2021/10/09 01:13:14;;;;;;;27.88;17.80;;;;;;;;;;4936532;29;20051;-67
2021/10/09 01:15:42;;;;;;;26.33;17.80;;;;;;;;;;4937554;29;20048;-67
2021/10/09 01:18:10;;;;;;;28.13;19.38;;;;;;;;;;4937763;29;20052;-67
2021/10/09 01:20:44;;;;;;;23.20;16.83;;;;;;;;;;4937755;29;20055;-67
2021/10/09 01:23:11;;;;;;;28.05;18.20;;;;;;;;;;4937195;29;20732;-67
2021/10/09 01:25:37;;;;;;;27.05;16.48;;;;;;;;;;4937219;29;20059;-67
2021/10/09 01:28:04;;;;;;;24.65;17.08;;;;;;;;;;4937491;29;20055;-67
2021/10/09 01:30:34;;;;;;;21.20;16.02;;;;;;;;;;4937293;29;20191;-67
2021/10/09 01:33:01;;;;;;;27.20;16.65;;;;;;;;;;4937258;29;20466;-67
2021/10/09 01:35:28;;;;;;;22.73;16.35;;;;;;;;;;4937629;29;20177;-67
2021/10/09 01:37:54;;;;;;;26.98;17.45;;;;;;;;;;4937473;29;20048;-67
2021/10/09 01:40:22;;;;;;;24.17;17.13;;;;;;;;;;4937145;29;20055;-68
2021/10/09 01:42:49;;;;;;;27.73;17.73;;;;;;;;;;4937131;29;20467;-67
2021/10/09 01:45:15;;;;;;;26.88;17.10;;;;;;;;;;4937249;29;20044;-67
2021/10/09 01:47:42;;;;;;;26.60;17.55;;;;;;;;;;4937050;29;20471;-68
2021/10/09 01:50:09;;;;;;;27.02;18.50;;;;;;;;;;4937075;29;20495;-67
2021/10/09 01:52:36;;;;;;;23.75;16.77;;;;;;;;;;4936723;29;20059;-67
2021/10/09 01:55:03;;;;;;;28.10;17.80;;;;;;;;;;4936825;29;20060;-67
2021/10/09 01:57:30;;;;;;;26.13;17.27;;;;;;;;;;4936759;29;20059;-67
2021/10/09 01:59:56;;;;;;;24.88;18.02;;;;;;;;;;4936818;29;20056;-67
2021/10/09 02:02:23;;;;;;;27.25;17.95;;;;;;;;;;4936584;29;20558;-67
2021/10/09 02:04:50;;;;;;;29.77;18.80;;;;;;;;;;4936862;29;20051;-67
2021/10/09 02:07:20;;;;;;;32.95;19.35;;;;;;;;;;4936711;29;20055;-68
2021/10/09 02:09:47;;;;;;;27.80;18.67;;;;;;;;;;4936982;29;20047;-67
2021/10/09 02:12:14;;;;;;;24.60;17.80;;;;;;;;;;4936563;29;20051;-67
2021/10/09 02:14:46;;;;;;;30.85;18.92;;;;;;;;;;4936503;29;20077;-67
2021/10/09 02:28:09;;;;;;;31.10;18.73;;;;;;;;;;4936559;29;20107;-68
2021/10/09 02:30:38;;;;;;;34.65;18.70;;;;;;;;;;4936249;29;20083;-67
2021/10/09 02:33:05;;;;;;;27.83;17.48;;;;;;;;;;4936076;29;20471;-67
2021/10/09 02:35:33;;;;;;;34.70;21.38;;;;;;;;;;4919376;29;20053;-68
2021/10/09 02:37:59;;;;;;;35.85;22.30;;;;;;;;;;4936167;29;20207;-67
2021/10/09 02:40:26;;;;;;;32.15;22.08;;;;;;;;;;4935969;29;20062;-66
2021/10/09 02:42:53;;;;;;;28.83;19.50;;;;;;;;;;4935962;29;20110;-67
2021/10/09 02:45:20;;;;;;;32.58;19.95;;;;;;;;;;4935780;29;20051;-66
2021/10/09 02:47:46;;;;;;;32.55;19.58;;;;;;;;;;4936015;29;20059;-67
2021/10/09 02:50:14;;;;;;;31.23;19.08;;;;;;;;;;4936065;29;20055;-67
2021/10/09 02:52:41;;;;;;;28.58;18.85;;;;;;;;;;4935865;29;20055;-67
2021/10/09 02:55:08;;;;;;;28.65;18.67;;;;;;;;;;4935890;29;20103;-67
2021/10/09 02:57:38;;;;;;;25.98;18.13;;;;;;;;;;4936083;29;20056;-67
2021/10/09 03:00:05;;;;;;;29.80;18.88;;;;;;;;;;4935818;29;20055;-67
2021/10/09 03:02:34;;;;;;;26.67;17.30;;;;;;;;;;4935474;29;20052;-67
2021/10/09 03:05:03;;;;;;;31.65;19.35;;;;;;;;;;4935921;29;20146;-67
2021/10/09 03:07:29;;;;;;;30.08;18.33;;;;;;;;;;4935324;29;20126;-67
2021/10/09 03:09:56;;;;;;;28.33;18.25;;;;;;;;;;4935400;29;20550;-67
2021/10/09 03:12:23;;;;;;;25.27;16.88;;;;;;;;;;4935331;29;20467;-67
2021/10/09 03:14:51;;;;;;;30.95;19.65;;;;;;;;;;4935568;29;20475;-67
2021/10/09 03:17:17;;;;;;;28.20;18.60;;;;;;;;;;4935484;29;20110;-67
2021/10/09 03:19:44;;;;;;;27.88;19.38;;;;;;;;;;4935496;29;20056;-67
2021/10/09 03:22:11;;;;;;;26.10;17.60;;;;;;;;;;4935246;29;20115;-67
2021/10/09 03:24:37;;;;;;;29.75;18.75;;;;;;;;;;4935328;29;20451;-67
2021/10/09 03:27:04;;;;;;;31.08;18.98;;;;;;;;;;4935296;29;20044;-67
2021/10/09 03:29:31;;;;;;;27.05;18.27;;;;;;;;;;4933947;29;20570;-67
2021/10/09 03:31:58;;;;;;;26.65;18.23;;;;;;;;;;4918233;29;20056;-68
2021/10/09 03:34:25;;;;;;;27.73;18.30;;;;;;;;;;4935105;29;20431;-68
2021/10/09 03:36:52;;;;;;;25.23;18.00;;;;;;;;;;4934106;29;20499;-67
2021/10/09 03:39:20;;;;;;;27.05;17.70;;;;;;;;;;4934935;29;20107;-67
2021/10/09 03:41:53;;;;;;;27.58;17.92;;;;;;;;;;4934830;29;20578;-68
2021/10/09 03:44:19;;;;;;;25.93;17.70;;;;;;;;;;4935150;29;20404;-67
2021/10/09 03:49:48;;;;;;;25.33;17.48;;;;;;;;;;4899004;29;20058;-67
2021/10/09 03:55:06;;;;;;;30.73;18.52;;;;;;;;;;4934777;29;20574;-67
2021/10/09 03:57:33;;;;;;;29.30;17.98;;;;;;;;;;4934644;29;20656;-67
2021/10/09 04:00:01;;;;;;;24.23;16.85;;;;;;;;;;4934755;29;20052;-67
2021/10/09 04:02:27;;;;;;;30.83;17.90;;;;;;;;;;4934745;29;20055;-67
2021/10/09 04:04:54;;;;;;;27.27;18.17;;;;;;;;;;4934838;29;20130;-67
2021/10/09 04:07:21;;;;;;;29.35;17.42;;;;;;;;;;4917791;29;20479;-68
2021/10/09 04:09:47;;;;;;;32.88;17.58;;;;;;;;;;4934635;29;20090;-67
2021/10/09 04:12:14;;;;;;;24.73;17.23;;;;;;;;;;4956383;23;20585;-65
2021/10/09 04:14:41;;;;;;;24.70;17.40;;;;;;;;;;4933998;29;20585;-64
2021/10/09 04:17:13;;;;;;;24.92;16.77;;;;;;;;;;4917831;29;20051;-65
2021/10/09 04:19:40;;;;;;;24.88;16.83;;;;;;;;;;4934668;29;20564;-65
2021/10/09 04:22:06;;;;;;;22.92;16.67;;;;;;;;;;4947311;29;20051;-65
2021/10/09 04:24:33;;;;;;;27.00;15.68;;;;;;;;;;4936618;29;20125;-65
2021/10/09 04:27:00;;;;;;;25.95;18.15;;;;;;;;;;4921140;29;20048;-66
2021/10/09 04:29:27;;;;;;;25.35;17.63;;;;;;;;;;4936645;29;20059;-65
2021/10/09 04:31:53;;;;;;;27.75;17.45;;;;;;;;;;4953398;29;20126;-66
2021/10/09 04:34:20;;;;;;;28.05;17.63;;;;;;;;;;4936510;29;20047;-66
2021/10/09 04:36:47;;;;;;;26.45;17.00;;;;;;;;;;4953703;29;20055;-66
2021/10/09 04:39:16;;;;;;;27.83;16.85;;;;;;;;;;4936769;29;20051;-66
2021/10/09 04:41:42;;;;;;;32.00;18.25;;;;;;;;;;4932874;29;20571;-66
2021/10/09 04:44:09;;;;;;;25.10;18.30;;;;;;;;;;4934458;29;20052;-66
2021/10/09 04:46:35;;;;;;;26.45;16.67;;;;;;;;;;4934599;29;20419;-66
2021/10/09 04:49:02;;;;;;;28.67;18.13;;;;;;;;;;4938295;29;20111;-66
2021/10/09 04:51:29;;;;;;;25.60;16.50;;;;;;;;;;4921116;29;20051;-68
2021/10/09 04:53:55;;;;;;;26.23;17.05;;;;;;;;;;4937956;29;20126;-68
2021/10/09 04:56:22;;;;;;;24.02;18.63;;;;;;;;;;4949716;29;20047;-68
2021/10/09 04:58:49;;;;;;;29.45;19.02;;;;;;;;;;4957258;29;20047;-68
2021/10/09 05:01:15;;;;;;;28.15;18.33;;;;;;;;;;4971889;28;20059;-68
2021/10/09 05:03:42;;;;;;;28.17;19.02;;;;;;;;;;4971894;28;20055;-68
2021/10/09 05:06:09;;;;;;;27.05;18.30;;;;;;;;;;4957144;29;20051;-68
2021/10/09 05:08:35;;;;;;;28.15;18.88;;;;;;;;;;4957209;29;20059;-68
2021/10/09 05:11:03;;;;;;;30.45;19.33;;;;;;;;;;4956281;29;20055;-67
2021/10/09 05:13:29;;;;;;;25.05;18.27;;;;;;;;;;4939197;29;20058;-67
2021/10/09 05:15:56;;;;;;;26.98;18.52;;;;;;;;;;4955833;29;20047;-67
2021/10/09 05:18:23;;;;;;;28.73;18.33;;;;;;;;;;4938231;29;20055;-67
2021/10/09 05:20:49;;;;;;;35.13;19.67;;;;;;;;;;4956488;29;20066;-67
2021/10/09 05:23:16;;;;;;;30.27;20.08;;;;;;;;;;4935578;29;20051;-67
2021/10/09 05:25:43;;;;;;;25.80;17.77;;;;;;;;;;4951675;29;20055;-67
2021/10/09 05:28:15;;;;;;;28.65;17.33;;;;;;;;;;4939808;29;20055;-67
2021/10/09 05:30:48;;;;;;;33.58;19.38;;;;;;;;;;4936219;29;20103;-67
2021/10/09 05:33:36;;;;;;;27.05;18.35;;;;;;;;;;4937285;29;20172;-67
2021/10/09 05:36:03;;;;;;;31.80;19.63;;;;;;;;;;4936119;29;20621;-67
2021/10/09 05:38:30;;;;;;;29.65;19.75;;;;;;;;;;4935725;29;20051;-68
2021/10/09 05:40:57;;;;;;;29.42;19.13;;;;;;;;;;4954687;29;20453;-67
2021/10/09 05:43:25;;;;;;;32.70;20.75;;;;;;;;;;4939186;29;20055;-68
2021/10/09 05:45:52;;;;;;;33.22;20.60;;;;;;;;;;4939449;29;20051;-67
2021/10/09 05:48:19;;;;;;;30.02;19.77;;;;;;;;;;4939356;29;20054;-67
2021/10/09 05:51:01;;;;;;;34.95;21.45;;;;;;;;;;4945616;29;20055;-67
2021/10/09 05:56:14;;;;;;;34.90;22.55;;;;;;;;;;4939212;29;20106;-68
2021/10/09 05:59:07;;;;;;;30.13;21.00;;;;;;;;;;4940956;29;20114;-67
2021/10/09 06:59:27;;;;;;;58.72;31.80;;;;;;;;;;4953391;29;20450;-67
2021/10/09 07:01:27;;;;;;;39.90;24.63;;;;;;;;;;4951522;29;20121;-67
2021/10/09 07:03:54;;;;;;;37.85;23.92;;;;;;;;;;4953049;29;20083;-67
2021/10/09 07:06:22;;;;;;;38.30;24.30;;;;;;;;;;4953044;29;20055;-67
2021/10/09 07:08:48;;;;;;;36.38;22.60;;;;;;;;;;4953253;29;20054;-67
2021/10/09 07:11:16;;;;;;;32.83;22.30;;;;;;;;;;4951571;28;20110;-67
2021/10/09 07:13:42;;;;;;;31.38;21.75;;;;;;;;;;4951771;29;20055;-67
2021/10/09 07:16:09;;;;;;;30.73;21.38;;;;;;;;;;4952590;29;20055;-67
2021/10/09 07:18:37;;;;;;;30.83;19.85;;;;;;;;;;4952935;29;20068;-67
2021/10/09 07:21:03;;;;;;;30.15;19.67;;;;;;;;;;4952586;29;20050;-67
2021/10/09 07:23:30;;;;;;;28.10;19.80;;;;;;;;;;4952151;29;20055;-67
2021/10/09 07:25:57;;;;;;;35.45;21.77;;;;;;;;;;4952281;29;20403;-67
2021/10/09 07:28:23;;;;;;;30.77;20.30;;;;;;;;;;4952191;29;20051;-67
2021/10/09 07:30:51;;;;;;;30.00;19.65;;;;;;;;;;4952245;29;20430;-67
2021/10/09 07:33:18;;;;;;;31.50;21.55;;;;;;;;;;4958343;28;20102;-67
2021/10/09 07:35:45;;;;;;;29.48;19.55;;;;;;;;;;4934823;29;20506;-67
2021/10/09 07:38:14;;;;;;;27.55;19.60;;;;;;;;;;4951499;29;20083;-67
2021/10/09 07:40:40;;;;;;;29.52;20.02;;;;;;;;;;4934808;29;20058;-67
2021/10/09 07:43:07;;;;;;;28.70;20.60;;;;;;;;;;4934724;29;20466;-67
2021/10/09 07:45:34;;;;;;;29.08;19.27;;;;;;;;;;4934592;29;20054;-67
2021/10/09 07:48:01;;;;;;;28.63;19.63;;;;;;;;;;4934587;29;20055;-67
2021/10/09 07:50:28;;;;;;;28.35;19.33;;;;;;;;;;4951891;29;20414;-67
2021/10/09 07:52:55;;;;;;;29.98;19.45;;;;;;;;;;4951342;29;20051;-67
2021/10/09 07:55:21;;;;;;;28.65;19.45;;;;;;;;;;4934303;29;20047;-67
2021/10/09 07:57:48;;;;;;;24.33;18.95;;;;;;;;;;4934224;29;20522;-67
2021/10/09 08:00:15;;;;;;;27.92;19.25;;;;;;;;;;4958394;28;20047;-67
2021/10/09 08:02:48;;;;;;;25.95;18.17;;;;;;;;;;4951433;29;20047;-67
2021/10/09 08:05:15;;;;;;;24.13;17.10;;;;;;;;;;4950797;29;20122;-67
2021/10/09 08:07:42;;;;;;;25.60;18.13;;;;;;;;;;4918915;29;20193;-67
2021/10/09 08:10:10;;;;;;;27.38;17.13;;;;;;;;;;4933485;29;20051;-67
2021/10/09 08:12:37;;;;;;;21.20;16.83;;;;;;;;;;4956738;28;20354;-67
2021/10/09 08:15:05;;;;;;;25.00;17.42;;;;;;;;;;4958763;28;20051;-67
2021/10/09 08:17:32;;;;;;;22.70;17.52;;;;;;;;;;4933587;29;20051;-67
2021/10/09 08:19:58;;;;;;;27.27;17.23;;;;;;;;;;4966707;28;20051;-67
2021/10/09 08:22:28;;;;;;;24.63;17.52;;;;;;;;;;4951062;28;20055;-67
2021/10/09 08:25:20;;;;;;;23.92;16.42;;;;;;;;;;4951505;29;20051;-67
2021/10/09 08:28:05;;;;;;;26.08;17.15;;;;;;;;;;4951728;29;20048;-67
2021/10/09 08:36:15;;;;;;;20.42;15.60;;;;;;;;;;4951384;29;20472;-69
2021/10/09 08:41:08;;;;;;;25.92;16.02;;;;;;;;;;4951660;29;20106;-68
2021/10/09 08:43:36;;;;;;;25.00;15.80;;;;;;;;;;4919735;29;20466;-68
2021/10/09 08:46:03;;;;;;;22.45;15.80;;;;;;;;;;4935369;29;20055;-68
2021/10/09 08:48:40;;;;;;;22.45;14.63;;;;;;;;;;4931480;29;20051;-68
2021/10/09 08:51:07;;;;;;;21.33;14.90;;;;;;;;;;4933833;29;20090;-69
2021/10/09 08:53:41;;;;;;;22.73;15.38;;;;;;;;;;4934297;29;20082;-69
2021/10/09 08:56:09;;;;;;;21.15;15.45;;;;;;;;;;4918963;29;20118;-69
2021/10/09 08:58:42;;;;;;;23.80;15.55;;;;;;;;;;4951271;29;20055;-70
2021/10/09 09:01:27;;;;;;;;;;;;;;;;;;4951682;29;20054;-68
2021/10/09 09:04:11;;;;;;;21.67;14.85;;;;;;;;;;4926446;29;19996;-69
2021/10/09 09:40:17;;;;;;;17.63;12.45;;;;;;;;;;4924864;29;20055;-68
2021/10/09 09:42:49;;;;;;;22.42;13.35;;;;;;;;;;4936301;29;20047;-68
2021/10/09 09:45:23;;;;;;;18.88;12.07;;;;;;;;;;4937594;29;20055;-68
2021/10/09 09:47:55;;;;;;;19.80;12.30;;;;;;;;;;4926191;29;20059;-68
2021/10/09 09:50:22;;;;;;;20.50;12.70;;;;;;;;;;4917534;29;20107;-68
2021/10/09 09:52:49;;;;;;;18.35;12.48;;;;;;;;;;4911975;29;20356;-69
2021/10/09 09:55:18;;;;;;;15.70;12.50;;;;;;;;;;4922511;29;20553;-69
2021/10/09 09:58:04;;;;;;;18.25;11.93;;;;;;;;;;4934006;29;20062;-68
2021/10/09 10:00:33;;;;;;;15.98;11.73;;;;;;;;;;4912440;29;20075;-68
2021/10/09 10:03:02;;;;;;;17.50;12.18;;;;;;;;;;4937721;29;20055;-68
2021/10/09 10:05:29;;;;;;;16.40;11.90;;;;;;;;;;4916733;29;20047;-67
2021/10/09 10:07:56;;;;;;;15.27;10.95;;;;;;;;;;4937412;29;20059;-68
2021/10/09 10:10:23;;;;;;;16.45;10.63;;;;;;;;;;4916076;29;20406;-68
2021/10/09 10:12:54;;;;;;;23.42;11.73;;;;;;;;;;4929290;23;20073;-69
2021/10/09 10:15:25;;;;;;;24.80;11.48;;;;;;;;;;4906742;29;20502;-68
2021/10/09 10:17:51;;;;;;;19.85;11.68;;;;;;;;;;4905849;29;20112;-68
2021/10/09 10:20:19;;;;;;;23.52;10.82;;;;;;;;;;4924900;29;20507;-69
2021/10/09 10:22:49;;;;;;;21.30;11.35;;;;;;;;;;4923746;29;20048;-69
2021/10/09 10:25:26;;;;;;;17.90;11.13;;;;;;;;;;4922822;29;20056;-69
2021/10/09 10:28:00;;;;;;;13.07;9.57;;;;;;;;;;4926267;29;20189;-69
2021/10/09 10:30:32;;;;;;;17.65;10.75;;;;;;;;;;4921997;29;20054;-68
2021/10/09 10:32:59;;;;;;;21.42;10.25;;;;;;;;;;4923033;29;20089;-67
2021/10/09 10:35:28;;;;;;;14.40;10.05;;;;;;;;;;4922995;29;20059;-67
2021/10/09 10:38:02;;;;;;;14.38;9.93;;;;;;;;;;4923880;29;20044;-67
2021/10/09 10:40:48;;;;;;;12.07;9.30;;;;;;;;;;4922817;29;20056;-67
2021/10/09 10:43:49;;;;;;;16.05;9.88;;;;;;;;;;4923379;29;20052;-68
2021/10/09 10:46:24;;;;;;;14.25;10.48;;;;;;;;;;4925421;29;20059;-67
2021/10/09 10:49:00;;;;;;;15.70;9.32;;;;;;;;;;4921862;29;20044;-67
2021/10/09 10:57:00;;;;;;;14.27;9.68;;;;;;;;;;4924643;29;20060;-67
2021/10/09 10:59:45;;;;;;;14.98;8.85;;;;;;;;;;4923538;29;20055;-67
2021/10/09 11:02:28;;;;;;;15.48;9.07;;;;;;;;;;4917801;29;20048;-67
2021/10/09 11:04:58;;;;;;;13.48;9.18;;;;;;;;;;4922206;29;20052;-67
2021/10/09 11:07:35;;;;;;;13.10;8.70;;;;;;;;;;4922911;29;20056;-67
2021/10/09 11:10:09;;;;;;;14.85;8.82;;;;;;;;;;4919217;29;20111;-67
2021/10/09 11:12:40;;;;;;;10.57;8.00;;;;;;;;;;4921938;29;20467;-67
2021/10/09 11:15:22;;;;;;;12.23;8.23;;;;;;;;;;4918381;29;20468;-67
2021/10/09 11:17:55;;;;;;;11.70;8.13;;;;;;;;;;4915711;29;20313;-67
2021/10/09 11:20:24;;;;;;;13.18;8.48;;;;;;;;;;4915282;29;20707;-67
2021/10/09 11:22:52;;;;;;;11.40;7.70;;;;;;;;;;4916083;29;20048;-67
2021/10/09 11:25:26;;;;;;;12.65;7.65;;;;;;;;;;4916538;29;20064;-67
2021/10/09 11:27:53;;;;;;;12.32;7.15;;;;;;;;;;4916406;29;20052;-68
2021/10/09 11:30:20;;;;;;;13.48;7.78;;;;;;;;;;4916364;29;20202;-67
2021/10/09 11:32:46;;;;;;;15.35;7.82;;;;;;;;;;4916260;29;20060;-67
2021/10/09 11:35:15;;;;;;;10.65;7.72;;;;;;;;;;4916699;29;20048;-67
2021/10/09 11:37:51;;;;;;;10.98;7.75;;;;;;;;;;4916418;29;20104;-68
2021/10/09 11:40:56;;;;;;;11.65;8.07;;;;;;;;;;4916249;29;20734;-67
2021/10/09 11:44:01;;;;;;;14.60;7.45;;;;;;;;;;4916105;29;20060;-67
2021/10/09 11:46:58;;;;;;;10.25;7.70;;;;;;;;;;4916160;29;20511;-68
2021/10/09 11:55:20;;;;;;;12.85;7.85;;;;;;;;;;4916043;29;20108;-67
2021/10/09 11:57:47;;;;;;;10.63;7.50;;;;;;;;;;4915198;29;20103;-67
2021/10/09 12:00:29;;;;;;;12.60;8.00;;;;;;;;;;4914802;29;20560;-67
2021/10/09 12:03:00;;;;;;;13.45;7.55;;;;;;;;;;4915749;29;20136;-67
2021/10/09 12:05:33;;;;;;;12.68;7.38;;;;;;;;;;4915932;29;20087;-67
2021/10/09 12:08:27;;;;;;;12.32;6.95;;;;;;;;;;4914894;29;20100;-67
2021/10/09 12:11:12;;;;;;;12.52;7.20;;;;;;;;;;4915986;29;20104;-67
2021/10/09 12:13:52;;;;;;;9.07;6.35;;;;;;;;;;4915709;29;20052;-68
2021/10/09 12:16:30;;;;;;;8.43;6.60;;;;;;;;;;4915855;29;20056;-67
2021/10/09 12:19:04;;;;;;;9.35;7.22;;;;;;;;;;4915778;29;20127;-68
2021/10/09 12:21:33;;;;;;;9.57;5.82;;;;;;;;;;4915504;29;20063;-67
2021/10/09 12:24:18;;;;;;;10.63;7.50;;;;;;;;;;4915328;29;20096;-68
2021/10/09 12:27:12;;;;;;;8.07;6.57;;;;;;;;;;4915528;29;20059;-68
2021/10/09 12:29:58;;;;;;;10.98;7.18;;;;;;;;;;4907112;29;20051;-68
2021/10/09 12:32:25;;;;;;;8.52;6.57;;;;;;;;;;4915263;29;20045;-68
2021/10/09 12:35:13;;;;;;;9.63;6.82;;;;;;;;;;4915257;29;20064;-68
2021/10/09 12:38:15;;;;;;;9.07;6.05;;;;;;;;;;4914545;29;20051;-68
2021/10/09 12:40:51;;;;;;;7.40;6.15;;;;;;;;;;4836430;29;20126;-69
2021/10/09 12:43:19;;;;;;;9.35;5.78;;;;;;;;;;4904517;29;20056;-69
2021/10/09 12:45:46;;;;;;;8.70;6.53;;;;;;;;;;4915227;29;20111;-68
2021/10/09 12:48:14;;;;;;;12.35;6.47;;;;;;;;;;4915398;29;20558;-68
2021/10/09 12:50:42;;;;;;;9.90;5.68;;;;;;;;;;4914879;29;20059;-68
2021/10/09 12:53:09;;;;;;;10.10;6.38;;;;;;;;;;4914638;29;20469;-68
2021/10/09 12:55:36;;;;;;;8.90;6.20;;;;;;;;;;4914906;29;20056;-68
2021/10/09 12:58:05;;;;;;;11.23;5.88;;;;;;;;;;4915268;29;20107;-68
2021/10/09 13:00:33;;;;;;;8.10;5.53;;;;;;;;;;4915266;29;20048;-68
2021/10/09 13:03:00;;;;;;;11.88;5.90;;;;;;;;;;4915068;29;20499;-68
2021/10/09 13:05:29;;;;;;;10.90;6.32;;;;;;;;;;4913917;29;20063;-68
2021/10/09 13:07:58;;;;;;;7.80;5.72;;;;;;;;;;4915948;29;20464;-68
2021/10/09 13:10:25;;;;;;;8.32;5.60;;;;;;;;;;4918770;29;20400;-68
2021/10/09 13:12:52;;;;;;;7.38;6.07;;;;;;;;;;4918506;29;20056;-68
2021/10/09 13:15:19;;;;;;;7.20;5.72;;;;;;;;;;4918686;29;20500;-68
2021/10/09 13:17:48;;;;;;;7.75;5.82;;;;;;;;;;4918855;29;20107;-68
2021/10/09 13:20:15;;;;;;;11.85;7.07;;;;;;;;;;4918932;29;20103;-68
2021/10/09 13:22:42;;;;;;;9.48;6.43;;;;;;;;;;4918196;29;20063;-68
2021/10/09 13:25:26;;;;;;;10.73;6.90;;;;;;;;;;4918437;29;20056;-72
2021/10/09 13:27:53;;;;;;;8.35;6.43;;;;;;;;;;4904711;29;20052;-70
2021/10/09 13:30:20;;;;;;;10.10;6.20;;;;;;;;;;4916431;29;20090;-73
2021/10/09 13:32:47;;;;;;;8.15;6.40;;;;;;;;;;4924538;29;20055;-71
2021/10/09 13:35:13;;;;;;;13.85;6.50;;;;;;;;;;4928532;29;20052;-69
2021/10/09 13:37:51;;;;;;;10.85;6.57;;;;;;;;;;4922694;29;20052;-69
2021/10/09 13:40:18;;;;;;;8.63;6.60;;;;;;;;;;4917625;29;20054;-68
2021/10/09 13:42:45;;;;;;;11.23;6.45;;;;;;;;;;4923620;29;20060;-69
2021/10/09 13:45:12;;;;;;;9.68;6.50;;;;;;;;;;4925260;29;20052;-69
2021/10/09 13:47:40;;;;;;;10.95;6.63;;;;;;;;;;4922676;29;20134;-69
2021/10/09 13:50:07;;;;;;;9.90;6.38;;;;;;;;;;4917192;29;20056;-69
2021/10/09 13:52:34;;;;;;;10.15;6.38;;;;;;;;;;4925211;29;20047;-69
2021/10/09 13:55:00;;;;;;;9.18;6.57;;;;;;;;;;4924321;29;20055;-68
2021/10/09 13:57:27;;;;;;;9.90;7.10;;;;;;;;;;4923955;29;20115;-69
2021/10/09 13:59:57;;;;;;;10.90;6.90;;;;;;;;;;4915944;29;20631;-69
2021/10/09 14:02:24;;;;;;;9.60;6.90;;;;;;;;;;4926737;29;20059;-69
2021/10/09 14:04:51;;;;;;;9.55;6.72;;;;;;;;;;4931781;29;20060;-70
2021/10/09 14:07:18;;;;;;;10.38;7.22;;;;;;;;;;4929454;29;20114;-70
2021/10/09 14:09:44;;;;;;;13.80;8.00;;;;;;;;;;4926552;29;20123;-69
2021/10/09 14:12:11;;;;;;;10.98;7.00;;;;;;;;;;4922863;29;20079;-70
2021/10/09 14:14:38;;;;;;;9.45;6.65;;;;;;;;;;4922976;29;20056;-69
2021/10/09 14:17:05;;;;;;;9.52;6.85;;;;;;;;;;4912172;29;20056;-70
2021/10/09 14:19:54;;;;;;;11.55;6.35;;;;;;;;;;4923097;29;20048;-70
2021/10/09 14:22:22;;;;;;;10.52;6.63;;;;;;;;;;4920696;29;20063;-69
2021/10/09 14:24:49;;;;;;;14.73;6.82;;;;;;;;;;4920393;29;20052;-69
2021/10/09 14:27:16;;;;;;;8.63;6.07;;;;;;;;;;4921631;29;20551;-70
2021/10/09 14:29:42;;;;;;;10.07;6.72;;;;;;;;;;4926288;29;20460;-70
2021/10/09 14:32:09;;;;;;;12.63;7.05;;;;;;;;;;4917242;29;20056;-70
2021/10/09 14:34:36;;;;;;;10.45;6.53;;;;;;;;;;4920310;29;20048;-70
2021/10/09 14:37:03;;;;;;;12.02;6.25;;;;;;;;;;4920668;29;20063;-69
2021/10/09 14:39:29;;;;;;;9.35;5.70;;;;;;;;;;4923608;29;20071;-69
2021/10/09 14:41:56;;;;;;;8.52;6.43;;;;;;;;;;4921563;29;20059;-70
2021/10/09 14:44:23;;;;;;;8.60;5.80;;;;;;;;;;4919718;29;20641;-69
2021/10/09 14:49:33;;;;;;;8.55;6.78;;;;;;;;;;4923066;29;20100;-70
2021/10/09 14:52:46;;;;;;;10.98;7.28;;;;;;;;;;4924316;29;20119;-70
2021/10/09 15:19:35;;;;;;;10.25;6.80;;;;;;;;;;4920286;29;20374;-73
2021/10/09 15:22:02;;;;;;;10.00;6.20;;;;;;;;;;4919495;29;20127;-70
2021/10/09 15:24:29;;;;;;;11.52;7.57;;;;;;;;;;4920751;29;20056;-70
2021/10/09 15:26:55;;;;;;;11.48;6.95;;;;;;;;;;4918787;29;20055;-70
2021/10/09 15:29:22;;;;;;;12.55;7.15;;;;;;;;;;4921146;29;20495;-74
2021/10/09 15:31:49;;;;;;;10.10;7.10;;;;;;;;;;4916291;29;20048;-72
2021/10/09 15:34:16;;;;;;;11.45;7.07;;;;;;;;;;4921076;29;20096;-71
2021/10/09 15:36:43;;;;;;;12.15;6.95;;;;;;;;;;4918979;29;20052;-72
2021/10/09 15:39:10;;;;;;;10.75;7.38;;;;;;;;;;4920189;29;20570;-71
2021/10/09 15:41:36;;;;;;;13.00;7.30;;;;;;;;;;4918830;29;20107;-72
2021/10/09 15:44:03;;;;;;;12.15;6.90;;;;;;;;;;4922539;29;20056;-71
2021/10/09 15:46:30;;;;;;;11.68;7.78;;;;;;;;;;4922867;29;20056;-69
2021/10/09 15:48:57;;;;;;;11.25;7.80;;;;;;;;;;4920313;29;20103;-68
2021/10/09 15:51:24;;;;;;;10.10;7.68;;;;;;;;;;4919051;29;20052;-69
2021/10/09 15:53:50;;;;;;;12.00;7.45;;;;;;;;;;4919562;29;20067;-68
2021/10/09 15:56:17;;;;;;;13.32;8.10;;;;;;;;;;4919701;29;20052;-68
2021/10/09 15:58:46;;;;;;;11.32;7.35;;;;;;;;;;4921354;29;20517;-69
2021/10/09 16:01:13;;;;;;;13.93;8.35;;;;;;;;;;4920124;29;20983;-69
2021/10/09 16:03:40;;;;;;;13.68;8.27;;;;;;;;;;4917267;29;20432;-70
2021/10/09 16:06:06;;;;;;;14.43;8.05;;;;;;;;;;4918365;29;20052;-69
2021/10/09 16:08:33;;;;;;;14.40;8.18;;;;;;;;;;4917758;29;20562;-69
2021/10/09 16:11:12;;;;;;;14.73;8.52;;;;;;;;;;4920071;29;20055;-69
2021/10/09 16:13:39;;;;;;;12.65;8.23;;;;;;;;;;4920147;29;20422;-69
2021/10/09 16:16:06;;;;;;;12.40;7.97;;;;;;;;;;4921615;29;20048;-69
2021/10/09 16:18:33;;;;;;;11.85;7.50;;;;;;;;;;4919556;29;20400;-69
2021/10/09 16:21:00;;;;;;;9.90;7.68;;;;;;;;;;4924828;29;20055;-70
2021/10/09 16:23:26;;;;;;;14.88;8.32;;;;;;;;;;4920166;29;20103;-69
2021/10/09 16:25:53;;;;;;;14.05;7.93;;;;;;;;;;4916694;29;20063;-70
2021/10/09 16:28:19;;;;;;;13.15;7.30;;;;;;;;;;4918194;29;20059;-70
2021/10/09 16:30:46;;;;;;;16.15;8.43;;;;;;;;;;4917794;29;20099;-70
2021/10/09 16:33:13;;;;;;;18.77;8.52;;;;;;;;;;4930986;29;20036;-70
2021/10/09 16:35:40;;;;;;;15.88;9.02;;;;;;;;;;4918389;29;20067;-70
2021/10/09 16:38:07;;;;;;;14.73;8.30;;;;;;;;;;4921655;29;20051;-70
2021/10/09 16:40:34;;;;;;;9.68;7.88;;;;;;;;;;4919598;29;20052;-70
2021/10/09 16:43:01;;;;;;;12.00;8.30;;;;;;;;;;4925151;29;20126;-70
2021/10/09 16:45:28;;;;;;;10.82;8.02;;;;;;;;;;4922059;29;20460;-70
2021/10/09 16:47:55;;;;;;;12.95;8.07;;;;;;;;;;4923600;29;20099;-70
2021/10/09 16:50:21;;;;;;;11.35;7.80;;;;;;;;;;4925001;29;20051;-70
2021/10/09 16:52:48;;;;;;;14.25;8.88;;;;;;;;;;4924855;29;20055;-70
2021/10/09 16:55:15;;;;;;;10.20;8.35;;;;;;;;;;4921496;29;20147;-70
2021/10/09 16:57:41;;;;;;;13.93;8.55;;;;;;;;;;4927187;29;20061;-70
2021/10/09 17:00:09;;;;;;;13.00;8.25;;;;;;;;;;4923413;29;20123;-69
2021/10/09 17:02:36;;;;;;;19.85;9.68;;;;;;;;;;4922085;29;20492;-70
2021/10/09 17:05:03;;;;;;;17.98;9.60;;;;;;;;;;4920978;29;20108;-69
2021/10/09 17:07:30;;;;;;;18.50;10.05;;;;;;;;;;4916106;29;20122;-69
2021/10/09 17:09:57;;;;;;;16.95;10.35;;;;;;;;;;4920710;29;20130;-69
2021/10/09 17:12:24;;;;;;;16.70;10.35;;;;;;;;;;4915431;29;20135;-69
2021/10/09 17:14:51;;;;;;;16.92;10.80;;;;;;;;;;4923426;29;20056;-69